Time;durP1;ratioP1;P1;durP2;ratioP2;P2;SDS_P1;SDS_P2;PMS_P1;PMS_P2;Temp;Humidity;BMP_temperature;BMP_pressure;BME280_temperature;BME280_humidity;BME280_pressure;Samples;Min_cycle;Max_cycle;Signal;HPM_P1;HPM_P2
2021/11/10 00:00:15;;;;;;;92.40;39.42;;;;;;;2.32;76.37;100026.94;5049348;28;20094;-66
2021/11/10 00:02:42;;;;;;;103.15;44.63;;;;;;;2.29;76.58;100030.88;5049691;28;20366;-66
2021/11/10 00:05:08;;;;;;;137.27;63.40;;;;;;;2.31;76.51;100023.38;5049240;28;20032;-66
2021/11/10 00:07:34;;;;;;;145.70;68.80;;;;;;;2.32;76.27;100026.94;5049306;28;20087;-66
2021/11/10 00:10:00;;;;;;;132.15;62.38;;;;;;;2.34;76.50;100024.88;5049515;28;20025;-66
2021/11/10 00:12:26;;;;;;;114.50;55.28;;;;;;;2.30;76.43;100021.72;5047903;28;20393;-67
2021/11/10 00:14:51;;;;;;;117.85;52.38;;;;;;;2.28;76.23;100012.97;5048537;28;20029;-66
2021/11/10 00:17:16;;;;;;;107.03;48.45;;;;;;;2.27;76.59;100016.69;5049582;28;20029;-66
2021/11/10 00:19:42;;;;;;;103.30;45.95;;;;;;;2.30;76.86;100020.88;5050857;28;20056;-66
2021/11/10 00:22:07;;;;;;;102.38;46.17;;;;;;;2.27;76.60;100014.00;5049050;28;20071;-67
2021/11/10 00:24:33;;;;;;;88.75;40.30;;;;;;;2.23;76.38;100015.47;5048074;28;20035;-66
2021/11/10 00:26:59;;;;;;;83.70;40.45;;;;;;;2.19;76.16;100009.59;5048905;28;20099;-66
2021/11/10 00:29:24;;;;;;;88.18;39.42;;;;;;;2.15;76.10;100013.75;5048729;28;20061;-65
2021/11/10 00:31:50;;;;;;;95.88;42.67;;;;;;;2.12;76.37;100018.75;5048008;28;20039;-65
2021/11/10 00:34:15;;;;;;;98.78;42.45;;;;;;;2.12;76.26;100016.03;5048808;28;20049;-66
2021/11/10 00:36:41;;;;;;;101.50;43.65;;;;;;;2.13;76.25;100015.00;5049207;28;20465;-66
2021/11/10 00:39:06;;;;;;;98.22;45.13;;;;;;;2.10;76.19;100016.22;5051342;28;20095;-66
2021/11/10 00:41:32;;;;;;;84.25;38.03;;;;;;;2.10;76.44;100018.94;5050711;28;20025;-64
2021/11/10 00:44:01;;;;;;;83.65;36.72;;;;;;;2.11;76.13;100020.59;5052511;28;20024;-65
2021/11/10 00:46:32;;;;;;;73.43;33.87;;;;;;;2.08;76.26;100011.03;5050817;28;20025;-65
2021/11/10 00:48:58;;;;;;;67.85;32.10;;;;;;;1.99;76.12;100014.94;5051167;28;20033;-64
2021/11/10 00:51:24;;;;;;;90.07;36.78;;;;;;;1.86;75.88;100006.75;5051053;28;20052;-66
2021/11/10 00:53:50;;;;;;;99.22;39.45;;;;;;;1.77;76.65;100003.38;5051947;28;20067;-66
2021/11/10 00:56:16;;;;;;;95.57;38.35;;;;;;;1.74;76.55;100007.34;5051183;28;20790;-65
2021/11/10 00:58:41;;;;;;;110.03;45.38;;;;;;;1.70;76.62;100000.66;5051627;28;20103;-66
2021/11/10 01:01:07;;;;;;;104.90;42.45;;;;;;;1.71;76.24;100007.72;5051692;28;20033;-66
2021/11/10 01:03:32;;;;;;;102.78;41.40;;;;;;;1.72;76.34;99998.59;5052718;28;20079;-66
2021/11/10 01:05:59;;;;;;;92.43;38.83;;;;;;;1.72;76.29;99992.31;5049239;28;20020;-65
2021/11/10 01:08:25;;;;;;;89.63;39.35;;;;;;;1.71;76.55;99999.63;5051662;28;20495;-66
2021/11/10 01:10:51;;;;;;;81.20;36.63;;;;;;;1.70;76.74;99995.25;5048733;28;20107;-66
2021/11/10 01:13:18;;;;;;;82.80;37.47;;;;;;;1.70;76.23;99997.09;5052569;28;20071;-65
2021/11/10 01:15:44;;;;;;;70.55;32.97;;;;;;;1.65;75.82;100003.13;5051112;28;20017;-66
2021/11/10 01:18:10;;;;;;;74.30;35.28;;;;;;;1.58;76.58;99992.28;5051030;28;20033;-66
2021/11/10 01:20:36;;;;;;;80.18;37.90;;;;;;;1.55;76.42;99981.84;5050781;28;20029;-67
2021/11/10 01:23:02;;;;;;;82.80;36.55;;;;;;;1.54;75.81;99984.75;5049264;28;20023;-67
2021/11/10 01:25:27;;;;;;;84.40;36.42;;;;;;;1.51;75.86;99995.94;5050640;28;20433;-67
2021/11/10 01:27:54;;;;;;;85.57;37.65;;;;;;;1.46;75.59;99989.25;5051165;28;20473;-67
2021/11/10 01:30:21;;;;;;;75.38;33.05;;;;;;;1.43;76.47;99989.66;5050459;28;20029;-67
2021/11/10 01:32:47;;;;;;;77.85;34.38;;;;;;;1.36;76.16;99990.66;5050706;28;20037;-66
2021/11/10 01:35:13;;;;;;;70.70;32.80;;;;;;;1.32;75.84;99990.22;5050708;28;20079;-67
2021/11/10 01:37:39;;;;;;;87.18;37.17;;;;;;;1.25;76.04;99990.16;5050697;28;20523;-66
2021/11/10 01:40:06;;;;;;;73.78;34.88;;;;;;;1.19;75.52;99986.41;5049012;28;20758;-66
2021/11/10 01:42:31;;;;;;;102.15;39.15;;;;;;;1.14;75.94;99985.31;5050682;28;20021;-66
2021/11/10 01:44:58;;;;;;;92.38;37.78;;;;;;;1.10;75.81;99984.88;5049029;28;20503;-67
2021/11/10 01:47:24;;;;;;;96.57;39.33;;;;;;;1.10;75.46;99984.03;5049938;28;20091;-66
2021/11/10 01:49:49;;;;;;;87.03;36.83;;;;;;;1.08;75.62;99972.59;5050344;28;20105;-66
2021/11/10 01:52:15;;;;;;;85.00;35.50;;;;;;;1.01;75.36;99978.78;5050947;28;20555;-67
2021/11/10 01:54:43;;;;;;;90.57;37.10;;;;;;;0.97;75.19;99968.56;5050721;28;20373;-67
2021/11/10 01:57:10;;;;;;;80.57;34.13;;;;;;;0.93;75.37;99967.28;5050668;28;20023;-67
2021/11/10 01:59:45;;;;;;;83.22;33.95;;;;;;;0.84;75.69;99970.13;5050739;28;20021;-67
2021/11/10 02:02:23;;;;;;;94.35;37.22;;;;;;;0.80;75.18;99971.53;5049479;28;20021;-67
2021/11/10 02:04:50;;;;;;;75.28;35.03;;;;;;;0.74;74.98;99967.78;5049350;28;20024;-67
2021/11/10 02:07:18;;;;;;;85.88;35.40;;;;;;;0.69;75.66;99963.97;5050849;28;20031;-67
2021/11/10 02:09:44;;;;;;;105.40;40.67;;;;;;;0.67;75.29;99958.78;5050911;28;20619;-67
2021/11/10 02:12:11;;;;;;;104.10;43.00;;;;;;;0.73;75.78;99957.16;5051122;28;20025;-67
2021/11/10 02:14:38;;;;;;;100.95;39.65;;;;;;;0.76;75.83;99956.75;5048255;28;20025;-67
2021/11/10 02:17:06;;;;;;;94.13;38.50;;;;;;;0.73;75.69;99944.50;5049425;28;20114;-67
2021/11/10 02:19:32;;;;;;;102.60;39.78;;;;;;;0.72;75.72;99944.66;5049695;28;20029;-67
2021/11/10 02:21:58;;;;;;;89.15;35.13;;;;;;;0.72;75.38;99942.81;5049491;28;20027;-67
2021/11/10 02:24:26;;;;;;;105.80;43.40;;;;;;;0.73;75.87;99938.25;5050375;28;20334;-67
2021/11/10 02:26:52;;;;;;;100.53;42.60;;;;;;;0.77;76.07;99930.59;5049966;28;20473;-67
2021/11/10 02:29:21;;;;;;;92.65;40.67;;;;;;;0.76;75.51;99926.22;5050250;28;20021;-67
2021/11/10 02:31:48;;;;;;;93.80;39.60;;;;;;;0.77;75.74;99923.31;5049355;28;20285;-67
2021/11/10 02:34:14;;;;;;;72.32;33.28;;;;;;;0.79;75.92;99913.16;5049481;28;20473;-67
2021/11/10 02:36:39;;;;;;;72.10;34.20;;;;;;;0.73;76.09;99895.03;5049689;28;20086;-66
2021/11/10 02:39:11;;;;;;;69.43;34.05;;;;;;;0.67;75.68;99893.97;5049799;28;20681;-67
2021/11/10 02:41:37;;;;;;;69.75;33.42;;;;;;;0.65;75.59;99892.47;5048951;28;20053;-67
2021/11/10 02:44:06;;;;;;;66.50;32.03;;;;;;;0.62;76.09;99884.75;5049462;28;20033;-67
2021/11/10 02:46:36;;;;;;;68.70;31.90;;;;;;;0.60;75.55;99879.56;5049798;28;20021;-67
2021/11/10 02:49:03;;;;;;;64.22;31.85;;;;;;;0.61;75.46;99883.13;5049751;28;20473;-68
2021/11/10 02:51:28;;;;;;;59.72;29.17;;;;;;;0.61;75.68;99880.41;5049849;28;20075;-67
2021/11/10 02:53:54;;;;;;;60.60;30.65;;;;;;;0.61;76.04;99880.41;5049260;28;20032;-67
2021/11/10 02:56:20;;;;;;;57.65;28.83;;;;;;;0.62;75.93;99879.34;5050574;28;20033;-65
2021/11/10 02:58:45;;;;;;;61.85;29.85;;;;;;;0.58;75.70;99882.47;5049668;28;20048;-66
2021/11/10 03:01:11;;;;;;;58.88;28.45;;;;;;;0.59;75.60;99881.44;5050135;28;20974;-65
2021/11/10 03:03:36;;;;;;;62.90;30.90;;;;;;;0.59;75.70;99878.75;5050478;28;20013;-66
2021/11/10 03:06:03;;;;;;;62.95;29.33;;;;;;;0.61;75.82;99872.31;5050551;28;20020;-66
2021/11/10 03:08:29;;;;;;;61.42;30.95;;;;;;;0.62;75.56;99865.84;5050116;28;20029;-66
2021/11/10 03:10:55;;;;;;;57.17;25.95;;;;;;;0.61;75.74;99866.91;5048240;28;20032;-66
2021/11/10 03:13:20;;;;;;;59.38;30.38;;;;;;;0.56;76.09;99881.00;5050739;28;20509;-67
2021/11/10 03:15:46;;;;;;;60.47;31.63;;;;;;;0.49;75.42;99874.69;5049467;28;20539;-67
2021/11/10 03:18:13;;;;;;;57.70;30.13;;;;;;;0.46;75.26;99875.09;5049816;28;20477;-67
2021/11/10 03:20:39;;;;;;;60.00;30.80;;;;;;;0.46;75.93;99875.09;5044344;28;20481;-66
2021/11/10 03:23:05;;;;;;;60.80;30.85;;;;;;;0.44;75.88;99875.28;5049073;28;20104;-67
2021/11/10 03:25:31;;;;;;;62.60;30.23;;;;;;;0.45;75.71;99866.16;5049479;28;20052;-66
2021/11/10 03:27:57;;;;;;;53.30;27.98;;;;;;;0.42;75.55;99863.84;5050084;28;20021;-66
2021/11/10 03:30:23;;;;;;;56.85;27.42;;;;;;;0.37;75.09;99877.09;5049957;28;20056;-66
2021/11/10 03:32:51;;;;;;;55.38;27.90;;;;;;;0.28;75.67;99869.13;5049779;28;20500;-67
2021/11/10 03:35:17;;;;;;;57.78;26.42;;;;;;;0.30;75.64;99877.03;5049787;28;20147;-66
2021/11/10 03:37:42;;;;;;;56.72;27.42;;;;;;;0.28;75.67;99871.00;5049596;28;20108;-67
2021/11/10 03:40:08;;;;;;;57.60;27.65;;;;;;;0.28;75.68;99866.44;5048861;28;20473;-66
2021/11/10 03:42:36;;;;;;;53.42;26.23;;;;;;;0.27;75.60;99867.44;5047198;28;20048;-66
2021/11/10 03:45:02;;;;;;;55.97;26.33;;;;;;;0.24;75.65;99878.63;5049582;28;20393;-66
2021/11/10 03:47:28;;;;;;;53.88;27.25;;;;;;;0.22;75.51;99866.38;5049430;28;20045;-66
2021/11/10 03:49:53;;;;;;;56.60;25.63;;;;;;;0.18;75.33;99874.03;5049431;28;20055;-67
2021/11/10 03:52:19;;;;;;;53.85;24.77;;;;;;;0.12;75.64;99875.63;5047837;28;20028;-67
2021/11/10 03:54:45;;;;;;;51.00;25.67;;;;;;;0.07;75.19;99874.53;5049250;28;20028;-67
2021/11/10 03:57:11;;;;;;;55.20;25.63;;;;;;;0.02;75.28;99877.78;5049495;28;20021;-65
2021/11/10 03:59:38;;;;;;;50.55;24.88;;;;;;;-0.01;75.44;99876.34;5049593;28;20036;-66
2021/11/10 04:02:05;;;;;;;47.78;25.13;;;;;;;-0.05;75.43;99875.03;5049131;28;20048;-66
2021/11/10 04:04:31;;;;;;;57.85;25.88;;;;;;;-0.07;75.41;99870.88;5046490;28;20036;-66
2021/11/10 04:06:56;;;;;;;59.75;27.27;;;;;;;-0.11;75.50;99878.50;5049293;28;20033;-66
2021/11/10 04:09:22;;;;;;;67.38;28.80;;;;;;;-0.09;75.27;99889.13;5047506;28;20066;-67
2021/11/10 04:11:47;;;;;;;75.22;31.98;;;;;;;-0.04;75.36;99889.38;5048256;28;20041;-66
2021/11/10 04:14:13;;;;;;;69.20;29.00;;;;;;;-0.02;75.77;99892.72;5049595;28;20021;-66
2021/11/10 04:16:38;;;;;;;61.67;29.60;;;;;;;-0.02;75.46;99893.53;5049559;28;20103;-67
2021/11/10 04:19:04;;;;;;;66.28;29.85;;;;;;;0.04;75.90;99896.50;5048366;28;20370;-66
2021/11/10 04:21:31;;;;;;;71.70;31.85;;;;;;;0.05;75.44;99898.19;5048964;28;20505;-66
2021/11/10 04:23:57;;;;;;;65.47;28.95;;;;;;;0.06;75.52;99889.06;5048881;28;20033;-68
2021/11/10 04:26:25;;;;;;;61.13;29.13;;;;;;;0.07;75.77;99891.53;5049340;28;20027;-67
2021/11/10 04:28:51;;;;;;;92.10;37.17;;;;;;;0.05;75.57;99890.91;5049083;28;20025;-67
2021/11/10 04:31:18;;;;;;;85.53;33.63;;;;;;;-0.01;75.75;99891.69;5048538;28;20123;-67
2021/11/10 04:33:43;;;;;;;75.22;31.27;;;;;;;-0.02;75.41;99893.53;5049184;28;20055;-67
2021/11/10 04:36:09;;;;;;;64.40;29.00;;;;;;;-0.03;75.38;99897.25;5049547;28;20029;-67
2021/11/10 04:38:35;;;;;;;60.72;29.58;;;;;;;-0.01;75.63;99894.41;5049104;28;20032;-67
2021/11/10 04:41:00;;;;;;;58.17;31.63;;;;;;;0.01;75.38;99886.91;5048947;28;20040;-67
2021/11/10 04:43:26;;;;;;;51.05;25.70;;;;;;;0.07;75.46;99883.47;5049520;28;20036;-67
2021/11/10 04:46:01;;;;;;;50.97;25.90;;;;;;;0.17;75.82;99879.59;5048794;28;20451;-66
2021/11/10 04:48:27;;;;;;;55.28;27.98;;;;;;;0.25;75.73;99887.56;5049245;28;20473;-66
2021/11/10 04:50:52;;;;;;;50.22;27.10;;;;;;;0.33;76.26;99886.59;5048105;28;20033;-66
2021/11/10 04:53:17;;;;;;;55.35;27.33;;;;;;;0.38;75.96;99886.84;5048851;28;20040;-67
2021/11/10 04:55:43;;;;;;;50.80;25.23;;;;;;;0.39;76.12;99885.81;5047404;28;20120;-66
2021/11/10 04:58:08;;;;;;;52.30;24.77;;;;;;;0.33;75.73;99882.06;5048735;28;20040;-66
2021/11/10 05:00:34;;;;;;;57.55;30.33;;;;;;;0.27;75.32;99878.25;5048311;28;20036;-66
2021/11/10 05:02:59;;;;;;;52.88;26.02;;;;;;;0.20;75.64;99871.97;5048974;28;20044;-67
2021/11/10 05:05:25;;;;;;;60.58;29.63;;;;;;;0.16;75.46;99873.38;5048146;28;20115;-67
2021/11/10 05:07:51;;;;;;;49.20;24.50;;;;;;;0.16;75.52;99875.25;5048152;28;20031;-67
2021/11/10 05:10:18;;;;;;;67.80;31.00;;;;;;;0.07;75.43;99866.44;5048854;28;20048;-67
2021/11/10 05:12:44;;;;;;;76.43;34.20;;;;;;;0.06;75.42;99864.78;5048611;28;20079;-67
2021/11/10 05:15:10;;;;;;;71.93;34.00;;;;;;;0.03;75.20;99871.38;5048977;28;20504;-67
2021/11/10 05:17:36;;;;;;;85.05;37.67;;;;;;;0.00;75.49;99858.31;5048430;28;20061;-67
2021/11/10 05:20:02;;;;;;;75.63;34.50;;;;;;;0.04;75.27;99866.81;5049959;28;20053;-67
2021/11/10 05:22:28;;;;;;;78.72;35.17;;;;;;;0.08;75.55;99860.03;5050601;28;20067;-67
2021/11/10 05:24:53;;;;;;;66.07;31.75;;;;;;;0.08;75.69;99858.16;5051626;28;20449;-67
2021/11/10 05:27:19;;;;;;;77.18;33.13;;;;;;;0.09;75.43;99861.69;5051850;28;20100;-67
2021/11/10 05:29:46;;;;;;;68.18;33.63;;;;;;;0.11;75.23;99855.06;5052540;28;20465;-67
2021/11/10 05:32:11;;;;;;;77.10;37.05;;;;;;;0.10;75.56;99860.66;5051545;28;20058;-66
2021/11/10 05:34:37;;;;;;;77.70;40.58;;;;;;;0.12;75.43;99855.91;5051552;28;20069;-67
2021/11/10 05:37:02;;;;;;;80.95;41.72;;;;;;;0.14;75.88;99846.59;5051655;28;20086;-67
2021/11/10 05:39:28;;;;;;;79.47;39.88;;;;;;;0.12;75.75;99843.25;5052050;28;20886;-67
2021/11/10 05:41:54;;;;;;;76.38;40.45;;;;;;;0.14;75.88;99841.19;5051699;28;20025;-67
2021/11/10 05:44:19;;;;;;;85.18;44.53;;;;;;;0.13;75.44;99849.50;5051630;28;20044;-66
2021/11/10 05:46:45;;;;;;;84.55;46.30;;;;;;;0.16;75.63;99848.25;5051634;28;20056;-67
2021/11/10 05:49:10;;;;;;;82.60;43.55;;;;;;;0.19;75.72;99845.19;5052120;28;20100;-67
2021/11/10 05:51:36;;;;;;;71.18;37.83;;;;;;;0.21;75.48;99848.50;5051025;28;20068;-67
2021/11/10 05:54:03;;;;;;;65.93;35.70;;;;;;;0.26;76.13;99856.88;5051796;28;20461;-67
2021/11/10 05:56:32;;;;;;;65.18;34.75;;;;;;;0.27;75.88;99859.34;5051682;28;20029;-66
2021/11/10 05:58:58;;;;;;;67.57;34.60;;;;;;;0.32;75.50;99860.63;5049309;28;20082;-67
2021/11/10 06:01:25;;;;;;;61.88;32.80;;;;;;;0.32;75.85;99861.50;5050462;28;20102;-67
2021/11/10 06:03:52;;;;;;;63.03;36.03;;;;;;;0.34;75.79;99863.97;5051569;28;20033;-67
2021/11/10 06:06:18;;;;;;;65.93;34.60;;;;;;;0.37;75.67;99866.28;5050368;28;20108;-66
2021/11/10 06:08:43;;;;;;;62.17;33.15;;;;;;;0.34;75.43;99862.13;5051764;28;20109;-66
2021/11/10 06:11:10;;;;;;;68.15;35.45;;;;;;;0.31;74.99;99867.06;5051181;28;20055;-67
2021/11/10 06:13:37;;;;;;;79.93;38.63;;;;;;;0.33;75.50;99862.31;5050237;28;20481;-66
2021/11/10 06:16:03;;;;;;;77.45;38.65;;;;;;;0.38;75.41;99862.56;5051131;28;20021;-66
2021/11/10 06:18:31;;;;;;;76.82;37.88;;;;;;;0.42;75.48;99864.66;5051032;28;20029;-66
2021/11/10 06:20:58;;;;;;;84.88;40.30;;;;;;;0.50;75.88;99871.81;5050423;28;20086;-66
2021/11/10 06:23:24;;;;;;;75.97;39.85;;;;;;;0.56;75.34;99868.34;5050532;28;20028;-66
2021/11/10 06:25:49;;;;;;;76.32;38.97;;;;;;;0.61;75.59;99875.84;5049404;28;20039;-66
2021/11/10 06:28:15;;;;;;;72.38;37.72;;;;;;;0.65;75.64;99877.13;5051547;28;20040;-66
2021/11/10 06:30:41;;;;;;;81.72;42.40;;;;;;;0.68;75.02;99873.19;5050078;28;20032;-66
2021/11/10 06:33:07;;;;;;;74.57;39.58;;;;;;;0.72;75.82;99874.47;5049666;28;20033;-67
2021/11/10 06:35:32;;;;;;;91.25;41.67;;;;;;;0.74;75.18;99869.69;5050448;28;20044;-66
2021/11/10 06:37:58;;;;;;;105.20;45.80;;;;;;;0.76;75.54;99866.81;5049762;28;20492;-65
2021/11/10 06:40:24;;;;;;;95.28;43.25;;;;;;;0.79;75.34;99869.13;5050355;28;20060;-66
2021/11/10 06:42:51;;;;;;;101.13;44.30;;;;;;;0.84;75.48;99863.94;5050037;28;20048;-66
2021/11/10 06:45:17;;;;;;;96.97;42.08;;;;;;;0.86;75.35;99868.13;5050197;28;20032;-67
2021/11/10 06:47:42;;;;;;;88.13;39.53;;;;;;;0.84;75.00;99872.03;5049289;28;20033;-66
2021/11/10 06:50:09;;;;;;;86.35;38.20;;;;;;;0.86;75.27;99876.22;5050488;28;20304;-67
2021/11/10 06:52:35;;;;;;;88.50;42.83;;;;;;;0.89;75.38;99870.44;5049141;28;20021;-67
2021/11/10 06:55:01;;;;;;;90.18;41.05;;;;;;;0.95;75.43;99870.69;5050543;28;20358;-66
2021/11/10 06:57:27;;;;;;;77.78;40.20;;;;;;;0.97;75.14;99877.53;5051049;28;20094;-65
2021/11/10 06:59:53;;;;;;;107.93;49.88;;;;;;;0.97;75.43;99871.31;5051212;28;20029;-66
2021/11/10 07:02:19;;;;;;;122.22;56.72;;;;;;;0.99;75.43;99864.66;5052268;28;20035;-66
2021/11/10 07:04:44;;;;;;;121.05;55.72;;;;;;;1.06;75.12;99862.00;5049580;28;20029;-66
2021/11/10 07:07:10;;;;;;;121.50;60.60;;;;;;;1.15;75.64;99857.28;5051468;28;20111;-66
2021/11/10 07:09:35;;;;;;;121.70;58.03;;;;;;;1.22;75.58;99857.31;5050190;28;20033;-66
2021/11/10 07:12:01;;;;;;;123.30;65.05;;;;;;;1.30;75.64;99857.16;5050342;28;20507;-66
2021/11/10 07:14:27;;;;;;;119.15;60.92;;;;;;;1.39;75.16;99855.94;5051069;28;20040;-66
2021/11/10 07:16:53;;;;;;;122.00;61.40;;;;;;;1.46;75.66;99843.25;5051592;28;20033;-65
2021/11/10 07:19:19;;;;;;;110.43;53.38;;;;;;;1.51;75.90;99848.09;5050017;28;20112;-66
2021/11/10 07:21:44;;;;;;;129.10;59.63;;;;;;;1.56;76.10;99851.00;5052713;28;20112;-66
2021/11/10 07:24:10;;;;;;;115.07;54.88;;;;;;;1.63;75.31;99845.63;5051189;28;20025;-66
2021/11/10 07:26:36;;;;;;;97.82;47.50;;;;;;;1.72;75.43;99836.28;5050929;28;20041;-65
2021/11/10 07:29:01;;;;;;;100.28;47.95;;;;;;;1.80;75.31;99835.25;5050009;28;20033;-66
2021/11/10 07:31:27;;;;;;;92.82;44.53;;;;;;;1.91;75.30;99833.81;5048919;28;20072;-66
2021/11/10 07:33:52;;;;;;;75.03;35.20;;;;;;;2.00;75.40;99829.88;5049920;28;20504;-66
2021/11/10 07:36:18;;;;;;;89.47;40.10;;;;;;;2.07;76.02;99828.03;5050259;28;20033;-66
2021/11/10 07:38:44;;;;;;;95.35;40.20;;;;;;;2.14;75.70;99836.16;5049563;28;20041;-65
2021/11/10 07:41:13;;;;;;;107.07;42.63;;;;;;;2.23;75.80;99831.38;5049511;28;20036;-66
2021/11/10 07:43:39;;;;;;;131.40;53.22;;;;;;;2.29;75.86;99827.00;5050776;28;20036;-66
2021/11/10 07:48:37;;;;;;;129.88;55.13;;;;;;;2.47;75.56;99826.38;5047279;28;20546;-65
2021/11/10 07:51:03;;;;;;;96.68;45.60;;;;;;;2.57;76.49;99821.38;5050406;28;20033;-65
2021/11/10 07:53:29;;;;;;;98.55;44.78;;;;;;;2.68;76.25;99823.41;5050479;28;20324;-65
2021/11/10 07:55:54;;;;;;;88.72;42.75;;;;;;;2.78;76.21;99822.16;5050453;28;20112;-66
2021/11/10 07:58:19;;;;;;;82.45;42.75;;;;;;;2.89;75.63;99813.38;5052307;28;20025;-66
2021/11/10 08:00:45;;;;;;;70.82;38.80;;;;;;;2.98;75.50;99814.84;5049974;28;20033;-65
2021/11/10 08:03:10;;;;;;;88.82;43.88;;;;;;;3.10;76.08;99811.44;5049105;28;20028;-66
2021/11/10 08:05:36;;;;;;;78.13;39.45;;;;;;;3.22;75.93;99811.63;5048454;28;20028;-66
2021/11/10 08:08:02;;;;;;;73.10;37.05;;;;;;;3.30;76.32;99805.94;5050702;28;20028;-65
2021/11/10 08:10:28;;;;;;;64.07;34.80;;;;;;;3.40;76.22;99813.63;5050065;28;20104;-66
2021/11/10 08:12:53;;;;;;;66.72;34.40;;;;;;;3.50;75.94;99805.84;5049996;28;20150;-66
2021/11/10 08:15:19;;;;;;;64.53;32.45;;;;;;;3.61;76.29;99798.06;5050157;28;20535;-67
2021/11/10 08:17:44;;;;;;;63.67;32.22;;;;;;;3.71;75.75;99803.88;5049729;28;20021;-67
2021/11/10 08:20:16;;;;;;;61.42;31.50;;;;;;;3.81;75.62;99797.97;5049283;28;21518;-65
2021/11/10 08:22:43;;;;;;;62.42;33.40;;;;;;;3.93;76.43;99800.81;5045063;28;20029;-68
2021/11/10 08:25:10;;;;;;;55.42;29.13;;;;;;;4.04;76.11;99800.09;5048359;28;20094;-67
2021/11/10 08:27:36;;;;;;;50.63;27.85;;;;;;;4.14;76.43;99794.16;5048032;28;20308;-66
2021/11/10 08:30:04;;;;;;;63.95;30.13;;;;;;;4.25;76.35;99795.38;5048417;28;20108;-66
2021/11/10 08:32:30;;;;;;;61.28;25.95;;;;;;;4.37;76.26;99784.59;5048096;28;20033;-67
2021/11/10 08:34:55;;;;;;;63.42;25.17;;;;;;;4.49;76.13;99790.94;5048345;28;20048;-67
2021/11/10 08:37:21;;;;;;;58.72;26.35;;;;;;;4.61;76.27;99791.06;5047540;28;20059;-65
2021/11/10 08:39:47;;;;;;;67.70;27.13;;;;;;;4.74;75.71;99787.38;5048455;28;20409;-66
2021/11/10 08:42:13;;;;;;;77.75;29.50;;;;;;;4.85;75.67;99778.50;5048747;28;20029;-67
2021/11/10 08:44:41;;;;;;;60.50;24.88;;;;;;;4.98;75.83;99784.81;5047836;28;20040;-66
2021/11/10 08:47:07;;;;;;;49.20;22.60;;;;;;;5.10;75.74;99788.44;5048151;28;20033;-67
2021/11/10 08:49:33;;;;;;;46.75;23.63;;;;;;;5.21;75.41;99786.84;5046429;28;20021;-66
2021/11/10 08:51:59;;;;;;;42.30;20.70;;;;;;;5.30;74.91;99788.19;5046492;28;20062;-66
2021/11/10 08:54:25;;;;;;;46.92;24.20;;;;;;;5.40;74.85;99784.13;5048969;28;20116;-67
2021/11/10 08:56:55;;;;;;;53.15;25.35;;;;;;;5.50;75.14;99785.22;5048735;28;20021;-67
2021/11/10 08:59:22;;;;;;;45.60;22.50;;;;;;;5.61;74.36;99786.31;5050516;28;20024;-66
2021/11/10 09:01:54;;;;;;;39.80;19.38;;;;;;;5.68;74.30;99788.13;5051054;28;20035;-67
2021/11/10 09:04:21;;;;;;;38.95;19.35;;;;;;;5.76;74.27;99771.47;5051831;28;20059;-66
2021/11/10 09:06:48;;;;;;;28.02;15.93;;;;;;;5.87;74.02;99770.69;5050571;28;20037;-65
2021/11/10 09:09:15;;;;;;;32.25;18.88;;;;;;;5.97;74.61;99776.38;5050155;28;20109;-65
2021/11/10 09:11:42;;;;;;;30.95;18.17;;;;;;;6.06;74.40;99773.34;5053328;28;20025;-66
2021/11/10 09:14:07;;;;;;;31.13;17.55;;;;;;;6.11;73.16;99768.03;5045801;28;20045;-64
2021/11/10 09:16:33;;;;;;;34.60;19.65;;;;;;;6.17;73.37;99769.81;5047490;28;20068;-67
2021/11/10 09:18:58;;;;;;;28.50;16.02;;;;;;;6.23;73.18;99763.44;5048715;28;20047;-68
2021/11/10 09:21:25;;;;;;;33.53;17.63;;;;;;;6.31;72.81;99761.44;5048982;28;20044;-68
2021/11/10 09:23:51;;;;;;;32.33;15.88;;;;;;;6.36;73.21;99759.66;5046966;28;20039;-67
2021/11/10 09:26:17;;;;;;;25.10;13.85;;;;;;;6.46;72.58;99760.97;5051222;28;20045;-64
2021/11/10 09:28:42;;;;;;;24.23;13.52;;;;;;;6.52;72.15;99760.84;5052038;28;20032;-65
2021/11/10 09:31:08;;;;;;;22.27;12.68;;;;;;;6.60;72.57;99759.63;5052249;28;20033;-65
2021/11/10 09:33:39;;;;;;;25.73;14.50;;;;;;;6.67;72.45;99762.25;5050673;28;20085;-64
2021/11/10 09:36:04;;;;;;;20.30;13.02;;;;;;;6.75;72.24;99752.88;5051332;28;20033;-65
2021/11/10 09:38:30;;;;;;;26.45;13.20;;;;;;;6.82;71.90;99748.94;5051996;28;20036;-66
2021/11/10 09:40:59;;;;;;;28.08;13.00;;;;;;;6.90;71.42;99744.19;5049900;28;20141;-66
2021/11/10 09:43:30;;;;;;;22.88;12.60;;;;;;;6.98;72.00;99746.56;5048165;28;20082;-65
2021/11/10 09:45:56;;;;;;;24.15;12.10;;;;;;;7.07;71.77;99747.84;5048211;28;20029;-65
2021/11/10 09:48:23;;;;;;;26.65;13.48;;;;;;;7.14;71.60;99747.69;5051227;28;20029;-66
2021/11/10 09:50:49;;;;;;;23.55;11.75;;;;;;;7.22;71.78;99735.56;5050638;28;20476;-65
2021/11/10 09:53:16;;;;;;;24.40;13.10;;;;;;;7.27;71.03;99739.25;5050422;28;20031;-67
2021/11/10 09:55:43;;;;;;;26.15;13.13;;;;;;;7.33;70.98;99736.63;5048838;28;20032;-65
2021/11/10 09:58:08;;;;;;;30.67;15.45;;;;;;;7.40;70.58;99735.38;5051452;28;20036;-66
2021/11/10 10:00:38;;;;;;;46.92;16.40;;;;;;;7.47;70.04;99739.88;5050750;28;20025;-65
2021/11/10 10:03:04;;;;;;;28.55;12.68;;;;;;;7.52;69.62;99735.31;5050832;28;20033;-65
2021/11/10 10:05:31;;;;;;;25.25;11.88;;;;;;;7.59;68.74;99730.56;5051107;28;20497;-65
2021/11/10 10:08:03;;;;;;;34.00;13.27;;;;;;;7.66;69.35;99722.19;5049355;28;20378;-65
2021/11/10 10:10:29;;;;;;;26.30;12.40;;;;;;;7.72;69.41;99723.13;5050789;28;20376;-65
2021/11/10 10:12:58;;;;;;;23.38;11.60;;;;;;;7.80;69.27;99719.97;5050037;28;20025;-66
2021/11/10 10:15:26;;;;;;;29.27;12.70;;;;;;;7.88;68.78;99721.50;5049827;28;20029;-65
2021/11/10 10:17:58;;;;;;;28.90;14.32;;;;;;;7.96;68.62;99718.31;5049858;28;20017;-65
2021/11/10 10:20:32;;;;;;;24.38;10.52;;;;;;;8.08;67.34;99718.25;5047435;28;20030;-66
2021/11/10 10:23:29;;;;;;;16.13;8.15;;;;;;;8.14;65.26;99713.69;5046383;28;20025;-66
2021/11/10 10:26:02;;;;;;;16.52;8.85;;;;;;;8.23;65.87;99705.91;5042503;28;20057;-66
2021/11/10 10:28:31;;;;;;;20.48;8.73;;;;;;;8.31;66.42;99709.06;5047671;28;20116;-66
2021/11/10 10:31:09;;;;;;;13.93;7.75;;;;;;;8.41;66.45;99707.53;5046340;28;20033;-66
2021/11/10 10:33:38;;;;;;;20.38;8.98;;;;;;;8.52;66.57;99703.09;5044411;28;20029;-67
2021/11/10 10:36:19;;;;;;;17.38;8.13;;;;;;;8.62;66.08;99701.31;5050102;28;20061;-67
2021/11/10 10:39:06;;;;;;;19.80;8.85;;;;;;;8.74;66.22;99693.00;5049005;28;20599;-66
2021/11/10 10:41:40;;;;;;;15.90;7.93;;;;;;;8.83;65.51;99685.16;5045816;28;20201;-66
2021/11/10 10:44:15;;;;;;;14.85;8.15;;;;;;;8.88;63.21;99690.69;5044832;28;20037;-69
2021/11/10 10:46:46;;;;;;;17.70;8.85;;;;;;;8.92;63.45;99686.38;5047111;28;20055;-67
2021/11/10 10:49:18;;;;;;;18.98;10.02;;;;;;;8.96;62.83;99675.75;5050139;28;20028;-68
2021/11/10 10:51:45;;;;;;;24.33;11.90;;;;;;;9.00;62.94;99676.06;5049257;28;20045;-68
2021/11/10 10:54:11;;;;;;;19.75;10.60;;;;;;;9.08;63.39;99678.34;5049951;28;20029;-71
2021/11/10 10:56:38;;;;;;;23.27;11.38;;;;;;;9.17;63.38;99671.31;5048412;28;20029;-69
2021/11/10 10:59:04;;;;;;;19.38;10.85;;;;;;;9.28;63.70;99672.28;5050448;28;20060;-74
2021/11/10 11:01:33;;;;;;;18.63;9.20;;;;;;;9.37;63.78;99678.09;5049657;28;20468;-72
2021/11/10 11:04:05;;;;;;;20.42;10.93;;;;;;;9.48;63.63;99668.91;5049436;28;20032;-73
2021/11/10 11:06:45;;;;;;;22.10;12.27;;;;;;;9.57;63.26;99665.72;5052290;28;20025;-73
2021/11/10 11:09:30;;;;;;;23.40;10.88;;;;;;;9.64;62.74;99658.94;5049566;28;20370;-73
2021/11/10 11:12:05;;;;;;;23.10;13.40;;;;;;;9.72;62.88;99662.28;5048936;28;20037;-74
2021/11/10 11:17:26;;;;;;;25.33;12.45;;;;;;;9.91;62.61;99657.22;5050459;28;20470;-73
2021/11/10 11:19:55;;;;;;;26.48;13.30;;;;;;;9.99;62.37;99653.97;5045963;28;20025;-72
2021/11/10 11:22:21;;;;;;;26.00;12.73;;;;;;;10.05;61.45;99646.63;5046994;28;20036;-64
2021/11/10 11:24:48;;;;;;;21.83;10.85;;;;;;;10.12;60.64;99639.00;5050343;28;20025;-65
2021/11/10 11:27:22;;;;;;;21.83;11.52;;;;;;;10.21;62.13;99642.06;5046834;28;20024;-64